Terminal Aerodrome Forecast
Issued by NWS

Home | Current Version | Previous Version | Text Only | Print | Product List | Glossary Off
Versions: 1 2 3 4 5 6 7 8 9 10 11 12 13 14 15 16 17 18 19 20

000
FTUS42 KMHX 240803 AAA
TAFPGV
TAF AMD
KPGV 240803Z 2408/2506 VRB05KT 6SM BR SCT003
      TEMPO 2409/2412 1/2SM FG BKN003
     FM241300 22003KT 3SM BR BKN007
     FM241500 23007KT P6SM BKN015
     FM241700 24009KT P6SM SCT035
     FM242100 23009KT P6SM SCT200
      AMD LTD TO CLD VIS AND WIND=

USA.gov is the U.S. government's official web portal to all federal, state and local government web resources and services.